sensor_id;sensor_type;location;lat;lon;timestamp;P1;durP1;ratioP1;P2;durP2;ratioP2
25649;SDS011;13505;45.196;5.696;2024-02-28T05:33:37;33.67;;;16.85;;
25649;SDS011;13505;45.196;5.696;2024-02-28T05:38:30;33.15;;;16.30;;
25649;SDS011;13505;45.196;5.696;2024-02-28T05:43:21;31.55;;;16.40;;
25649;SDS011;13505;45.196;5.696;2024-02-28T05:48:11;35.13;;;16.23;;
25649;SDS011;13505;45.196;5.696;2024-02-28T05:53:01;29.83;;;15.55;;
25649;SDS011;13505;45.196;5.696;2024-02-28T05:57:52;30.67;;;17.02;;
25649;SDS011;13505;45.196;5.696;2024-02-28T06:02:42;34.13;;;18.23;;
25649;SDS011;13505;45.196;5.696;2024-02-28T06:07:32;35.85;;;18.20;;
25649;SDS011;13505;45.196;5.696;2024-02-28T06:12:23;33.92;;;18.60;;
25649;SDS011;13505;45.196;5.696;2024-02-28T06:17:14;30.98;;;16.27;;
25649;SDS011;13505;45.196;5.696;2024-02-28T06:22:04;32.65;;;17.33;;
25649;SDS011;13505;45.196;5.696;2024-02-28T06:26:54;32.87;;;18.23;;
25649;SDS011;13505;45.196;5.696;2024-02-28T06:31:49;33.28;;;17.35;;
25649;SDS011;13505;45.196;5.696;2024-02-28T06:36:40;36.83;;;18.73;;
25649;SDS011;13505;45.196;5.696;2024-02-28T06:41:30;34.45;;;18.55;;
25649;SDS011;13505;45.196;5.696;2024-02-28T06:46:20;34.22;;;17.67;;
25649;SDS011;13505;45.196;5.696;2024-02-28T06:51:11;34.40;;;17.25;;
25649;SDS011;13505;45.196;5.696;2024-02-28T06:56:01;30.67;;;16.98;;
25649;SDS011;13505;45.196;5.696;2024-02-28T07:00:52;35.92;;;17.45;;
25649;SDS011;13505;45.196;5.696;2024-02-28T07:05:43;33.80;;;18.20;;
25649;SDS011;13505;45.196;5.696;2024-02-28T07:10:33;30.27;;;16.83;;
25649;SDS011;13505;45.196;5.696;2024-02-28T07:15:23;36.90;;;17.67;;
25649;SDS011;13505;45.196;5.696;2024-02-28T07:20:13;34.13;;;18.80;;
25649;SDS011;13505;45.196;5.696;2024-02-28T07:25:04;34.90;;;17.45;;
25649;SDS011;13505;45.196;5.696;2024-02-28T07:29:55;36.78;;;18.20;;
25649;SDS011;13505;45.196;5.696;2024-02-28T07:34:46;37.08;;;18.23;;
25649;SDS011;13505;45.196;5.696;2024-02-28T07:39:36;42.53;;;20.13;;
25649;SDS011;13505;45.196;5.696;2024-02-28T07:44:26;46.55;;;18.52;;
25649;SDS011;13505;45.196;5.696;2024-02-28T07:49:20;42.30;;;21.65;;
25649;SDS011;13505;45.196;5.696;2024-02-28T07:54:10;38.67;;;20.33;;
25649;SDS011;13505;45.196;5.696;2024-02-28T07:59:01;35.92;;;18.10;;
25649;SDS011;13505;45.196;5.696;2024-02-28T08:03:51;42.13;;;19.25;;
25649;SDS011;13505;45.196;5.696;2024-02-28T08:08:43;38.80;;;20.55;;
25649;SDS011;13505;45.196;5.696;2024-02-28T08:13:35;41.63;;;19.85;;
25649;SDS011;13505;45.196;5.696;2024-02-28T08:18:26;48.50;;;20.63;;
25649;SDS011;13505;45.196;5.696;2024-02-28T08:23:18;38.80;;;19.00;;
25649;SDS011;13505;45.196;5.696;2024-02-28T08:28:08;35.80;;;19.83;;
25649;SDS011;13505;45.196;5.696;2024-02-28T08:32:58;41.53;;;19.63;;
25649;SDS011;13505;45.196;5.696;2024-02-28T08:37:49;39.97;;;19.05;;
25649;SDS011;13505;45.196;5.696;2024-02-28T08:42:39;37.45;;;18.65;;
25649;SDS011;13505;45.196;5.696;2024-02-28T08:47:31;38.50;;;18.42;;
25649;SDS011;13505;45.196;5.696;2024-02-28T08:52:22;34.63;;;18.27;;
25649;SDS011;13505;45.196;5.696;2024-02-28T08:57:12;38.90;;;20.35;;
25649;SDS011;13505;45.196;5.696;2024-02-28T09:02:02;39.83;;;19.55;;
25649;SDS011;13505;45.196;5.696;2024-02-28T09:06:53;42.95;;;21.30;;
25649;SDS011;13505;45.196;5.696;2024-02-28T09:11:44;38.83;;;18.50;;
25649;SDS011;13505;45.196;5.696;2024-02-28T09:16:34;39.45;;;19.23;;
25649;SDS011;13505;45.196;5.696;2024-02-28T09:21:24;41.90;;;19.38;;
25649;SDS011;13505;45.196;5.696;2024-02-28T09:26:14;37.65;;;19.35;;
25649;SDS011;13505;45.196;5.696;2024-02-28T09:31:05;43.72;;;20.20;;
25649;SDS011;13505;45.196;5.696;2024-02-28T09:35:55;43.55;;;19.90;;
25649;SDS011;13505;45.196;5.696;2024-02-28T09:40:46;44.92;;;21.48;;
25649;SDS011;13505;45.196;5.696;2024-02-28T09:45:39;37.53;;;19.27;;
25649;SDS011;13505;45.196;5.696;2024-02-28T09:50:30;40.13;;;19.15;;
25649;SDS011;13505;45.196;5.696;2024-02-28T09:55:20;39.60;;;19.25;;
25649;SDS011;13505;45.196;5.696;2024-02-28T10:00:11;42.28;;;19.77;;
25649;SDS011;13505;45.196;5.696;2024-02-28T10:05:02;40.60;;;19.58;;
25649;SDS011;13505;45.196;5.696;2024-02-28T10:09:54;43.85;;;20.27;;
25649;SDS011;13505;45.196;5.696;2024-02-28T10:14:48;43.55;;;18.75;;
25649;SDS011;13505;45.196;5.696;2024-02-28T10:19:40;42.55;;;20.42;;
25649;SDS011;13505;45.196;5.696;2024-02-28T10:24:32;42.65;;;19.80;;
25649;SDS011;13505;45.196;5.696;2024-02-28T10:29:24;41.30;;;19.77;;
25649;SDS011;13505;45.196;5.696;2024-02-28T10:34:18;46.90;;;20.55;;
25649;SDS011;13505;45.196;5.696;2024-02-28T10:39:11;41.33;;;19.13;;
25649;SDS011;13505;45.196;5.696;2024-02-28T10:44:01;45.88;;;20.38;;
25649;SDS011;13505;45.196;5.696;2024-02-28T10:48:52;42.22;;;20.40;;
25649;SDS011;13505;45.196;5.696;2024-02-28T10:53:44;41.17;;;19.92;;
25649;SDS011;13505;45.196;5.696;2024-02-28T10:58:51;45.60;;;21.52;;
25649;SDS011;13505;45.196;5.696;2024-02-28T11:03:44;38.20;;;19.30;;
25649;SDS011;13505;45.196;5.696;2024-02-28T11:08:35;41.80;;;20.40;;
25649;SDS011;13505;45.196;5.696;2024-02-28T11:13:26;43.38;;;19.80;;
25649;SDS011;13505;45.196;5.696;2024-02-28T11:18:17;40.10;;;19.88;;
25649;SDS011;13505;45.196;5.696;2024-02-28T11:23:09;41.38;;;20.80;;
25649;SDS011;13505;45.196;5.696;2024-02-28T11:27:59;50.42;;;21.20;;
25649;SDS011;13505;45.196;5.696;2024-02-28T11:32:51;42.80;;;19.95;;
25649;SDS011;13505;45.196;5.696;2024-02-28T11:37:44;43.97;;;21.80;;
25649;SDS011;13505;45.196;5.696;2024-02-28T11:42:37;44.72;;;22.02;;
25649;SDS011;13505;45.196;5.696;2024-02-28T11:47:28;44.17;;;20.95;;
25649;SDS011;13505;45.196;5.696;2024-02-28T11:52:18;46.53;;;21.27;;
25649;SDS011;13505;45.196;5.696;2024-02-28T11:57:10;50.58;;;21.80;;
25649;SDS011;13505;45.196;5.696;2024-02-28T12:02:11;45.22;;;20.48;;
25649;SDS011;13505;45.196;5.696;2024-02-28T12:07:03;39.53;;;19.77;;
25649;SDS011;13505;45.196;5.696;2024-02-28T12:11:53;44.97;;;20.75;;
25649;SDS011;13505;45.196;5.696;2024-02-28T12:16:43;49.83;;;21.43;;
25649;SDS011;13505;45.196;5.696;2024-02-28T12:21:39;46.92;;;21.15;;
25649;SDS011;13505;45.196;5.696;2024-02-28T12:26:29;47.78;;;21.65;;
25649;SDS011;13505;45.196;5.696;2024-02-28T12:31:20;44.08;;;20.17;;
25649;SDS011;13505;45.196;5.696;2024-02-28T12:36:11;43.80;;;21.05;;
25649;SDS011;13505;45.196;5.696;2024-02-28T12:41:02;48.08;;;20.73;;
25649;SDS011;13505;45.196;5.696;2024-02-28T12:45:53;43.95;;;19.33;;
25649;SDS011;13505;45.196;5.696;2024-02-28T12:50:44;48.40;;;20.67;;
25649;SDS011;13505;45.196;5.696;2024-02-28T12:55:34;47.97;;;21.23;;
25649;SDS011;13505;45.196;5.696;2024-02-28T13:00:24;49.03;;;20.52;;
25649;SDS011;13505;45.196;5.696;2024-02-28T13:05:15;43.80;;;19.75;;
25649;SDS011;13505;45.196;5.696;2024-02-28T13:10:05;49.42;;;21.65;;
25649;SDS011;13505;45.196;5.696;2024-02-28T13:14:57;44.42;;;20.40;;
25649;SDS011;13505;45.196;5.696;2024-02-28T13:19:47;47.85;;;20.67;;
25649;SDS011;13505;45.196;5.696;2024-02-28T13:24:38;46.30;;;20.58;;
25649;SDS011;13505;45.196;5.696;2024-02-28T13:29:28;49.58;;;20.58;;
25649;SDS011;13505;45.196;5.696;2024-02-28T13:34:19;47.90;;;20.27;;
25649;SDS011;13505;45.196;5.696;2024-02-28T13:39:09;53.03;;;23.10;;
25649;SDS011;13505;45.196;5.696;2024-02-28T13:44:04;50.75;;;22.50;;
25649;SDS011;13505;45.196;5.696;2024-02-28T13:48:54;49.37;;;22.03;;
25649;SDS011;13505;45.196;5.696;2024-02-28T13:53:45;48.40;;;21.87;;
25649;SDS011;13505;45.196;5.696;2024-02-28T13:58:35;51.30;;;21.80;;
25649;SDS011;13505;45.196;5.696;2024-02-28T14:03:25;49.25;;;22.15;;
25649;SDS011;13505;45.196;5.696;2024-02-28T14:08:15;54.45;;;22.50;;
25649;SDS011;13505;45.196;5.696;2024-02-28T14:13:07;46.65;;;21.80;;
25649;SDS011;13505;45.196;5.696;2024-02-28T14:17:57;51.00;;;20.85;;
25649;SDS011;13505;45.196;5.696;2024-02-28T14:22:47;43.97;;;20.17;;
25649;SDS011;13505;45.196;5.696;2024-02-28T14:27:38;51.05;;;22.17;;
25649;SDS011;13505;45.196;5.696;2024-02-28T14:32:29;47.38;;;21.25;;
25649;SDS011;13505;45.196;5.696;2024-02-28T14:37:19;58.60;;;22.88;;
25649;SDS011;13505;45.196;5.696;2024-02-28T14:42:09;49.17;;;21.75;;
25649;SDS011;13505;45.196;5.696;2024-02-28T14:47:01;47.85;;;21.88;;
25649;SDS011;13505;45.196;5.696;2024-02-28T14:51:51;45.78;;;20.30;;
25649;SDS011;13505;45.196;5.696;2024-02-28T14:56:42;49.13;;;22.63;;
25649;SDS011;13505;45.196;5.696;2024-02-28T15:01:32;51.10;;;22.80;;
25649;SDS011;13505;45.196;5.696;2024-02-28T15:06:23;52.38;;;23.38;;
25649;SDS011;13505;45.196;5.696;2024-02-28T15:11:13;46.22;;;21.92;;
25649;SDS011;13505;45.196;5.696;2024-02-28T15:16:03;54.38;;;22.50;;
25649;SDS011;13505;45.196;5.696;2024-02-28T15:20:54;52.88;;;23.10;;
25649;SDS011;13505;45.196;5.696;2024-02-28T15:25:45;51.05;;;22.25;;
25649;SDS011;13505;45.196;5.696;2024-02-28T15:30:35;50.53;;;23.35;;
25649;SDS011;13505;45.196;5.696;2024-02-28T15:35:25;46.53;;;22.98;;
25649;SDS011;13505;45.196;5.696;2024-02-28T15:40:15;56.63;;;23.70;;
25649;SDS011;13505;45.196;5.696;2024-02-28T15:45:10;54.65;;;24.05;;
25649;SDS011;13505;45.196;5.696;2024-02-28T15:50:02;49.92;;;21.98;;
25649;SDS011;13505;45.196;5.696;2024-02-28T15:54:55;46.00;;;21.63;;
25649;SDS011;13505;45.196;5.696;2024-02-28T15:59:45;51.65;;;23.17;;
25649;SDS011;13505;45.196;5.696;2024-02-28T16:04:35;45.53;;;21.20;;
25649;SDS011;13505;45.196;5.696;2024-02-28T16:09:27;51.80;;;23.30;;
25649;SDS011;13505;45.196;5.696;2024-02-28T16:14:17;49.83;;;23.00;;
25649;SDS011;13505;45.196;5.696;2024-02-28T16:19:07;50.90;;;23.17;;
25649;SDS011;13505;45.196;5.696;2024-02-28T16:23:57;51.80;;;22.60;;
25649;SDS011;13505;45.196;5.696;2024-02-28T16:28:49;57.95;;;23.95;;
25649;SDS011;13505;45.196;5.696;2024-02-28T16:33:39;48.95;;;22.00;;
25649;SDS011;13505;45.196;5.696;2024-02-28T16:38:29;51.97;;;23.90;;
25649;SDS011;13505;45.196;5.696;2024-02-28T16:43:20;50.38;;;22.40;;
25649;SDS011;13505;45.196;5.696;2024-02-28T16:48:10;48.00;;;21.77;;
25649;SDS011;13505;45.196;5.696;2024-02-28T16:53:00;50.30;;;21.97;;
25649;SDS011;13505;45.196;5.696;2024-02-28T16:57:51;50.50;;;21.90;;
25649;SDS011;13505;45.196;5.696;2024-02-28T17:02:41;47.45;;;23.30;;
25649;SDS011;13505;45.196;5.696;2024-02-28T17:07:32;50.28;;;23.00;;
25649;SDS011;13505;45.196;5.696;2024-02-28T17:12:22;59.88;;;24.17;;
25649;SDS011;13505;45.196;5.696;2024-02-28T17:17:13;50.33;;;23.77;;
25649;SDS011;13505;45.196;5.696;2024-02-28T17:22:04;54.72;;;22.90;;
25649;SDS011;13505;45.196;5.696;2024-02-28T17:26:56;47.13;;;22.55;;
25649;SDS011;13505;45.196;5.696;2024-02-28T17:31:49;59.80;;;25.27;;
25649;SDS011;13505;45.196;5.696;2024-02-28T17:36:40;54.60;;;25.17;;
25649;SDS011;13505;45.196;5.696;2024-02-28T17:41:31;51.60;;;22.48;;
25649;SDS011;13505;45.196;5.696;2024-02-28T17:46:21;54.40;;;25.15;;
25649;SDS011;13505;45.196;5.696;2024-02-28T17:51:11;57.10;;;23.45;;
25649;SDS011;13505;45.196;5.696;2024-02-28T17:56:01;55.17;;;24.23;;
25649;SDS011;13505;45.196;5.696;2024-02-28T18:00:52;52.30;;;24.40;;
25649;SDS011;13505;45.196;5.696;2024-02-28T18:05:46;51.40;;;24.25;;
25649;SDS011;13505;45.196;5.696;2024-02-28T18:10:36;53.33;;;25.00;;
25649;SDS011;13505;45.196;5.696;2024-02-28T18:15:27;51.83;;;24.35;;
25649;SDS011;13505;45.196;5.696;2024-02-28T18:20:17;58.03;;;24.48;;
25649;SDS011;13505;45.196;5.696;2024-02-28T18:25:08;52.38;;;24.75;;
25649;SDS011;13505;45.196;5.696;2024-02-28T18:29:58;54.55;;;24.98;;
25649;SDS011;13505;45.196;5.696;2024-02-28T18:34:48;52.63;;;24.17;;
25649;SDS011;13505;45.196;5.696;2024-02-28T18:39:39;53.53;;;23.37;;
25649;SDS011;13505;45.196;5.696;2024-02-28T18:44:31;52.22;;;23.23;;
25649;SDS011;13505;45.196;5.696;2024-02-28T18:49:21;55.80;;;24.73;;
25649;SDS011;13505;45.196;5.696;2024-02-28T18:54:11;56.55;;;25.33;;
25649;SDS011;13505;45.196;5.696;2024-02-28T18:59:02;52.20;;;24.33;;
25649;SDS011;13505;45.196;5.696;2024-02-28T19:03:52;55.08;;;24.63;;
25649;SDS011;13505;45.196;5.696;2024-02-28T19:08:45;57.08;;;25.15;;
25649;SDS011;13505;45.196;5.696;2024-02-28T19:13:36;52.53;;;24.05;;
25649;SDS011;13505;45.196;5.696;2024-02-28T19:18:26;57.38;;;24.88;;
25649;SDS011;13505;45.196;5.696;2024-02-28T19:23:17;57.20;;;25.83;;
25649;SDS011;13505;45.196;5.696;2024-02-28T19:28:09;49.30;;;23.70;;
25649;SDS011;13505;45.196;5.696;2024-02-28T19:32:59;50.58;;;24.35;;
25649;SDS011;13505;45.196;5.696;2024-02-28T19:37:50;55.97;;;25.65;;
25649;SDS011;13505;45.196;5.696;2024-02-28T19:42:40;48.10;;;23.67;;
25649;SDS011;13505;45.196;5.696;2024-02-28T19:47:30;54.43;;;24.80;;
25649;SDS011;13505;45.196;5.696;2024-02-28T19:52:21;51.08;;;23.60;;
25649;SDS011;13505;45.196;5.696;2024-02-28T19:57:11;53.70;;;23.52;;
25649;SDS011;13505;45.196;5.696;2024-02-28T20:02:01;48.80;;;23.23;;
25649;SDS011;13505;45.196;5.696;2024-02-28T20:06:51;51.15;;;23.60;;
25649;SDS011;13505;45.196;5.696;2024-02-28T20:11:42;50.60;;;23.58;;
25649;SDS011;13505;45.196;5.696;2024-02-28T20:16:32;53.30;;;24.40;;
25649;SDS011;13505;45.196;5.696;2024-02-28T20:21:22;50.25;;;23.88;;
25649;SDS011;13505;45.196;5.696;2024-02-28T20:26:13;51.20;;;23.75;;
25649;SDS011;13505;45.196;5.696;2024-02-28T20:31:05;46.08;;;22.27;;
25649;SDS011;13505;45.196;5.696;2024-02-28T20:35:57;48.75;;;22.52;;
25649;SDS011;13505;45.196;5.696;2024-02-28T20:40:47;46.73;;;23.63;;
25649;SDS011;13505;45.196;5.696;2024-02-28T20:45:37;52.07;;;26.07;;
25649;SDS011;13505;45.196;5.696;2024-02-28T20:50:28;59.43;;;26.40;;
25649;SDS011;13505;45.196;5.696;2024-02-28T20:55:19;54.55;;;26.90;;
25649;SDS011;13505;45.196;5.696;2024-02-28T21:00:10;55.70;;;26.92;;
25649;SDS011;13505;45.196;5.696;2024-02-28T21:05:01;55.97;;;26.02;;
25649;SDS011;13505;45.196;5.696;2024-02-28T21:09:52;55.90;;;26.10;;
25649;SDS011;13505;45.196;5.696;2024-02-28T21:14:43;56.00;;;25.73;;
25649;SDS011;13505;45.196;5.696;2024-02-28T21:19:33;53.50;;;25.17;;
25649;SDS011;13505;45.196;5.696;2024-02-28T21:24:25;64.35;;;27.02;;
25649;SDS011;13505;45.196;5.696;2024-02-28T21:29:16;56.95;;;26.77;;
25649;SDS011;13505;45.196;5.696;2024-02-28T21:34:07;56.58;;;27.88;;
25649;SDS011;13505;45.196;5.696;2024-02-28T21:38:57;59.57;;;25.33;;
25649;SDS011;13505;45.196;5.696;2024-02-28T21:43:48;54.45;;;26.15;;
25649;SDS011;13505;45.196;5.696;2024-02-28T21:48:38;66.45;;;29.52;;
25649;SDS011;13505;45.196;5.696;2024-02-28T21:53:30;61.08;;;28.48;;
25649;SDS011;13505;45.196;5.696;2024-02-28T21:58:20;59.90;;;28.58;;
25649;SDS011;13505;45.196;5.696;2024-02-28T22:03:10;61.40;;;26.57;;
25649;SDS011;13505;45.196;5.696;2024-02-28T22:08:00;54.38;;;26.50;;
25649;SDS011;13505;45.196;5.696;2024-02-28T22:12:53;59.67;;;28.58;;
25649;SDS011;13505;45.196;5.696;2024-02-28T22:17:43;64.07;;;26.63;;
25649;SDS011;13505;45.196;5.696;2024-02-28T22:22:33;54.00;;;25.50;;
25649;SDS011;13505;45.196;5.696;2024-02-28T22:27:23;56.45;;;27.15;;
25649;SDS011;13505;45.196;5.696;2024-02-28T22:32:14;55.85;;;27.42;;
25649;SDS011;13505;45.196;5.696;2024-02-28T22:37:04;58.30;;;27.02;;
25649;SDS011;13505;45.196;5.696;2024-02-28T22:41:55;58.85;;;28.55;;
25649;SDS011;13505;45.196;5.696;2024-02-28T22:46:47;50.63;;;26.73;;
25649;SDS011;13505;45.196;5.696;2024-02-28T22:51:37;58.15;;;26.35;;
25649;SDS011;13505;45.196;5.696;2024-02-28T22:56:27;51.55;;;26.17;;
